createdAt,value
2023-02-11T00:02:00.927Z,24.50
2023-02-11T00:04:28.636Z,25.70
2023-02-11T00:06:56.367Z,26.07
2023-02-11T00:09:24.125Z,28.00
2023-02-11T00:11:51.926Z,28.20
2023-02-11T00:14:21.238Z,23.77
2023-02-11T00:16:48.935Z,26.10
2023-02-11T00:19:16.581Z,27.60
2023-02-11T00:21:44.318Z,26.70
2023-02-11T00:24:11.923Z,28.60
2023-02-11T00:26:39.514Z,25.87
2023-02-11T00:29:07.233Z,23.47
2023-02-11T00:31:36.546Z,29.17
2023-02-11T00:34:06.260Z,28.13
2023-02-11T00:36:34.057Z,28.23
2023-02-11T00:39:01.755Z,26.13
2023-02-11T00:41:30.081Z,26.70
2023-02-11T00:44:00.166Z,25.00
2023-02-11T00:46:28.077Z,29.20
2023-02-11T00:48:57.995Z,29.47
2023-02-11T00:51:25.769Z,27.90
2023-02-11T00:53:53.721Z,29.43
2023-02-11T00:56:21.523Z,27.63
2023-02-11T00:58:50.000Z,27.87
2023-02-11T01:01:18.386Z,26.50
2023-02-11T01:03:46.045Z,28.80
2023-02-11T01:06:15.007Z,31.43
2023-02-11T01:08:42.805Z,30.90
2023-02-11T01:11:14.439Z,30.20
2023-02-11T01:13:42.932Z,29.30
2023-02-11T01:16:11.637Z,30.17
2023-02-11T01:18:39.897Z,30.53
2023-02-11T01:21:07.744Z,31.00
2023-02-11T01:23:36.715Z,31.57
2023-02-11T01:26:06.115Z,33.70
2023-02-11T01:28:34.249Z,30.77
2023-02-11T01:31:02.653Z,31.87
2023-02-11T01:33:30.504Z,31.73
2023-02-11T01:36:01.989Z,31.43
2023-02-11T01:38:30.046Z,32.77
2023-02-11T01:41:00.725Z,33.73
2023-02-11T01:43:34.258Z,33.20
2023-02-11T01:46:31.904Z,31.00
2023-02-11T01:49:04.357Z,33.13
2023-02-11T01:51:35.211Z,35.27
2023-02-11T01:54:22.590Z,34.57
2023-02-11T01:57:11.281Z,34.33
2023-02-11T01:59:41.504Z,33.37
2023-02-11T02:02:12.724Z,30.00
2023-02-11T02:04:44.714Z,32.03
2023-02-11T02:07:15.584Z,33.47
2023-02-11T02:09:45.176Z,34.20
2023-02-11T02:12:14.077Z,31.80
2023-02-11T02:14:42.337Z,30.53
2023-02-11T02:17:11.909Z,34.80
2023-02-11T02:20:10.640Z,34.37
2023-02-11T02:23:17.260Z,29.43
2023-02-11T02:26:01.369Z,32.80
2023-02-11T02:28:44.106Z,32.83
2023-02-11T02:31:23.041Z,34.97
2023-02-11T02:33:56.517Z,34.00
2023-02-11T02:36:25.493Z,34.37
2023-02-11T02:38:55.605Z,31.43
2023-02-11T02:41:25.012Z,33.30
2023-02-11T02:43:52.794Z,28.90
2023-02-11T02:46:22.977Z,33.53
2023-02-11T02:48:52.598Z,29.70
2023-02-11T02:51:40.265Z,30.67
2023-02-11T02:54:37.919Z,29.27
2023-02-11T02:57:14.353Z,29.30
2023-02-11T02:59:50.853Z,30.00
2023-02-11T03:02:24.722Z,32.23
2023-02-11T03:04:56.807Z,27.67
2023-02-11T03:07:33.783Z,28.23
2023-02-11T03:10:05.103Z,29.80
2023-02-11T03:12:34.556Z,30.03
2023-02-11T03:15:04.187Z,26.40
2023-02-11T03:17:34.033Z,31.57
2023-02-11T03:20:03.428Z,27.63
2023-02-11T03:22:36.450Z,28.47
2023-02-11T03:25:05.815Z,29.43
2023-02-11T03:27:36.204Z,27.40
2023-02-11T03:30:08.508Z,29.30
2023-02-11T03:32:38.453Z,30.30
2023-02-11T03:35:11.040Z,28.47
2023-02-11T03:37:43.313Z,28.90
2023-02-11T03:40:13.508Z,29.10
2023-02-11T03:42:44.628Z,30.83
2023-02-11T03:45:15.299Z,27.57
2023-02-11T03:47:47.370Z,27.53
2023-02-11T03:50:16.258Z,28.80
2023-02-11T03:52:46.380Z,24.40
2023-02-11T03:55:17.981Z,26.70
2023-02-11T03:57:45.782Z,26.47
2023-02-11T04:00:14.269Z,24.40
2023-02-11T04:02:42.745Z,25.13
2023-02-11T04:05:11.946Z,23.97
2023-02-11T04:07:39.827Z,26.43
2023-02-11T04:10:09.256Z,21.10
2023-02-11T04:12:36.844Z,24.33
2023-02-11T04:15:04.922Z,21.30
2023-02-11T04:17:32.660Z,21.90
2023-02-11T04:20:00.304Z,21.87
2023-02-11T04:22:28.072Z,22.23
2023-02-11T04:24:55.747Z,23.83
2023-02-11T04:27:24.796Z,21.40
2023-02-11T04:29:52.571Z,20.83
2023-02-11T04:32:20.312Z,20.33
2023-02-11T04:34:48.349Z,17.97
2023-02-11T04:37:16.239Z,18.67
2023-02-11T04:39:44.062Z,18.50
2023-02-11T04:42:12.195Z,18.93
2023-02-11T04:44:41.254Z,20.73
2023-02-11T04:47:08.878Z,18.00
2023-02-11T04:49:36.758Z,20.60
2023-02-11T04:52:04.478Z,18.00
2023-02-11T04:54:32.085Z,17.80
2023-02-11T04:56:59.681Z,18.00
2023-02-11T04:59:27.593Z,18.70
2023-02-11T05:01:56.886Z,16.90
2023-02-11T05:04:24.613Z,16.83
2023-02-11T05:06:52.486Z,16.90
2023-02-11T05:09:20.156Z,18.40
2023-02-11T05:11:47.795Z,17.63
2023-02-11T05:14:15.489Z,16.30
2023-02-11T05:16:43.236Z,17.67
2023-02-11T05:19:12.519Z,18.60
2023-02-11T05:21:47.651Z,15.33
2023-02-11T05:24:21.591Z,18.33
2023-02-11T05:26:49.282Z,17.80
2023-02-11T05:29:16.947Z,16.17
2023-02-11T05:31:44.572Z,16.00
2023-02-11T05:34:13.591Z,19.37
2023-02-11T05:36:41.244Z,16.63
2023-02-11T05:39:10.171Z,17.20
2023-02-11T05:41:38.104Z,17.30
2023-02-11T05:44:05.970Z,17.00
2023-02-11T05:46:33.650Z,16.70
2023-02-11T05:49:01.325Z,15.00
2023-02-11T05:51:30.378Z,17.20
2023-02-11T05:53:58.770Z,15.53
2023-02-11T05:56:26.521Z,16.97
2023-02-11T05:58:54.287Z,15.90
2023-02-11T06:01:21.920Z,18.03
2023-02-11T06:03:51.295Z,14.63
2023-02-11T06:06:19.774Z,15.57
2023-02-11T06:08:49.718Z,17.00
2023-02-11T06:11:18.351Z,15.70
2023-02-11T06:13:46.039Z,16.10
2023-02-11T06:16:13.729Z,16.40
2023-02-11T06:18:41.451Z,17.70
2023-02-11T06:21:10.220Z,20.80
2023-02-11T06:23:37.999Z,21.53
2023-02-11T06:26:08.810Z,22.07
2023-02-11T06:28:38.773Z,21.83
2023-02-11T06:31:09.766Z,22.10
2023-02-11T06:33:37.630Z,20.43
2023-02-11T06:36:06.440Z,21.57
2023-02-11T06:38:34.157Z,19.80
2023-02-11T06:41:01.795Z,12.40
2023-02-11T06:43:30.880Z,16.20
2023-02-11T06:45:58.586Z,12.33
2023-02-11T06:48:26.232Z,16.27
2023-02-11T06:50:53.912Z,14.43
2023-02-11T06:53:21.673Z,15.73
2023-02-11T06:55:49.789Z,16.93
2023-02-11T06:58:17.604Z,15.00
2023-02-11T07:00:46.625Z,15.60
2023-02-11T07:03:14.304Z,15.80
2023-02-11T07:05:43.663Z,14.00
2023-02-11T07:08:11.287Z,15.43
2023-02-11T07:10:38.949Z,12.53
2023-02-11T07:13:06.621Z,15.27
2023-02-11T07:15:34.404Z,13.80
2023-02-11T07:18:03.436Z,14.43
2023-02-11T07:20:31.148Z,14.73
2023-02-11T07:23:00.024Z,16.93
2023-02-11T07:25:27.657Z,14.90
2023-02-11T07:27:55.323Z,17.20
2023-02-11T07:30:23.050Z,15.60
2023-02-11T07:32:50.801Z,16.20
2023-02-11T07:35:19.972Z,16.17
2023-02-11T07:37:48.615Z,11.27
2023-02-11T07:40:16.345Z,17.40
2023-02-11T07:42:43.935Z,16.67
2023-02-11T07:45:12.776Z,17.20
2023-02-11T07:47:42.655Z,18.17
2023-02-11T07:50:10.784Z,18.40
2023-02-11T07:52:39.766Z,19.20
2023-02-11T07:55:08.581Z,16.10
2023-02-11T07:57:36.219Z,18.53
2023-02-11T08:00:05.068Z,17.93
2023-02-11T08:02:38.350Z,17.00
2023-02-11T08:05:06.591Z,17.67
2023-02-11T08:07:34.343Z,20.20
2023-02-11T08:10:03.636Z,17.43
2023-02-11T08:12:31.415Z,18.87
2023-02-11T08:14:59.555Z,18.43
2023-02-11T08:17:27.283Z,18.47
2023-02-11T08:19:55.322Z,19.70
2023-02-11T08:22:23.053Z,19.50
2023-02-11T08:24:52.460Z,20.20
2023-02-11T08:27:21.692Z,19.57
2023-02-11T08:29:49.471Z,20.03
2023-02-11T08:32:17.527Z,19.83
2023-02-11T08:34:45.250Z,18.40
2023-02-11T08:37:13.080Z,18.80
2023-02-11T08:39:40.944Z,18.20
2023-02-11T08:42:08.713Z,19.20
2023-02-11T08:44:37.964Z,20.20
2023-02-11T08:47:05.904Z,18.50
2023-02-11T08:49:34.155Z,18.50
2023-02-11T08:52:04.309Z,19.67
2023-02-11T08:54:32.673Z,17.97
2023-02-11T08:57:01.961Z,18.67
2023-02-11T08:59:29.755Z,18.00
2023-02-11T09:01:58.940Z,17.70
2023-02-11T09:04:26.581Z,17.80
2023-02-11T09:06:54.302Z,15.67
2023-02-11T09:09:22.100Z,20.70
2023-02-11T09:11:49.808Z,17.60
2023-02-11T09:14:19.372Z,19.60
2023-02-11T09:16:47.658Z,18.23
2023-02-11T09:19:17.168Z,16.47
2023-02-11T09:21:45.248Z,15.87
2023-02-11T09:24:13.118Z,15.90
2023-02-11T09:26:42.662Z,15.50
2023-02-11T09:29:10.422Z,14.30
2023-02-11T09:31:38.486Z,15.37
2023-02-11T09:34:06.975Z,15.10
2023-02-11T09:36:38.405Z,13.20
2023-02-11T09:39:07.741Z,14.83
2023-02-11T09:42:08.766Z,14.00
2023-02-11T09:44:37.800Z,14.17
2023-02-11T09:47:07.098Z,14.40
2023-02-11T09:49:38.368Z,15.73
2023-02-11T09:52:13.432Z,15.80
2023-02-11T09:54:50.800Z,13.90
2023-02-11T09:57:28.246Z,14.13
2023-02-11T09:59:57.284Z,9.37
2023-02-11T10:02:28.708Z,12.73
2023-02-11T10:05:15.750Z,14.50
2023-02-11T10:07:49.708Z,13.27
2023-02-11T10:10:26.506Z,12.20
2023-02-11T10:13:07.616Z,12.43
2023-02-11T10:15:44.452Z,12.30
2023-02-11T10:18:40.070Z,13.00
2023-02-11T10:21:15.002Z,12.50
2023-02-11T10:23:46.492Z,10.50
2023-02-11T10:26:16.160Z,9.97
2023-02-11T10:28:46.240Z,10.60
2023-02-11T10:31:18.131Z,12.07
2023-02-11T10:33:47.753Z,10.77
2023-02-11T10:36:17.542Z,10.63
2023-02-11T10:38:46.545Z,9.00
2023-02-11T10:41:18.417Z,10.27
2023-02-11T10:43:46.662Z,9.87
2023-02-11T10:46:19.699Z,8.77
2023-02-11T10:48:49.528Z,10.67
2023-02-11T10:51:22.649Z,10.70
2023-02-11T10:54:14.406Z,8.43
2023-02-11T10:56:46.246Z,7.90
2023-02-11T10:59:18.580Z,8.73
2023-02-11T11:01:51.700Z,7.40
2023-02-11T11:04:36.634Z,8.87
2023-02-11T11:07:17.440Z,7.00
2023-02-11T11:09:50.082Z,9.73
2023-02-11T11:12:30.704Z,8.50
2023-02-11T11:15:02.255Z,7.90
2023-02-11T11:17:30.407Z,7.03
2023-02-11T11:20:32.367Z,7.20
2023-02-11T11:23:12.722Z,6.70
2023-02-11T11:25:44.278Z,6.30
2023-02-11T11:28:22.317Z,7.10
2023-02-11T11:30:50.642Z,6.93
2023-02-11T11:33:21.401Z,7.63
2023-02-11T11:35:58.614Z,7.70
2023-02-11T11:38:26.787Z,6.60
2023-02-11T11:41:17.928Z,6.20
2023-02-11T11:43:59.459Z,6.33
2023-02-11T11:46:30.356Z,6.10
2023-02-11T11:49:04.553Z,5.70
2023-02-11T11:51:33.757Z,5.83
2023-02-11T11:54:03.473Z,5.77
2023-02-11T11:56:34.762Z,5.30
2023-02-11T11:59:07.003Z,4.87
2023-02-11T12:01:40.297Z,6.20
2023-02-11T12:04:46.924Z,6.37
2023-02-11T12:07:25.748Z,4.73
2023-02-11T12:10:11.213Z,4.50
2023-02-11T12:12:47.050Z,4.67
2023-02-11T12:15:27.257Z,5.37
2023-02-11T12:18:08.218Z,5.80
2023-02-11T12:20:45.007Z,5.60
2023-02-11T12:23:28.014Z,4.73
2023-02-11T12:26:00.137Z,4.77
2023-02-11T12:28:36.767Z,4.80
2023-02-11T12:31:19.270Z,5.20
2023-02-11T12:34:04.350Z,4.40
2023-02-11T12:36:43.597Z,5.30
2023-02-11T12:39:20.329Z,5.37
2023-02-11T12:42:21.142Z,5.60
2023-02-11T12:45:00.678Z,4.63
2023-02-11T12:47:33.830Z,3.97
2023-02-11T12:50:09.487Z,5.50
2023-02-11T12:52:48.962Z,3.90
2023-02-11T12:55:21.740Z,3.53
2023-02-11T12:57:50.088Z,3.50
2023-02-11T13:00:22.572Z,4.10
2023-02-11T13:02:54.339Z,4.83
2023-02-11T13:05:26.286Z,6.17
2023-02-11T13:07:56.800Z,5.63
2023-02-11T13:10:28.852Z,5.50
2023-02-11T13:13:14.663Z,5.47
2023-02-11T13:15:44.058Z,5.30
2023-02-11T13:18:19.315Z,5.10
2023-02-11T13:20:51.447Z,5.00
2023-02-11T13:23:25.803Z,5.50
2023-02-11T13:25:56.247Z,6.07
2023-02-11T13:28:35.873Z,4.23
2023-02-11T13:31:07.771Z,4.60
2023-02-11T13:33:37.516Z,4.60
2023-02-11T13:36:22.481Z,5.20
2023-02-11T13:38:58.537Z,5.20
2023-02-11T13:41:30.110Z,6.10
2023-02-11T13:44:00.234Z,6.07
2023-02-11T13:46:31.874Z,5.67
2023-02-11T13:48:59.553Z,4.80
2023-02-11T13:51:37.615Z,5.50
2023-02-11T13:54:05.984Z,5.27
2023-02-11T13:56:35.430Z,5.17
2023-02-11T13:59:06.310Z,7.17
2023-02-11T14:02:06.268Z,5.63
2023-02-11T14:04:51.974Z,4.50
2023-02-11T14:07:45.185Z,7.63
2023-02-11T14:10:50.789Z,6.30
2023-02-11T14:13:24.953Z,4.43
2023-02-11T14:16:08.506Z,6.27
2023-02-11T14:19:02.417Z,5.70
2023-02-11T14:21:35.777Z,5.30
2023-02-11T14:24:39.984Z,4.50
2023-02-11T14:27:09.324Z,5.00
2023-02-11T14:29:42.254Z,5.33
2023-02-11T14:32:16.153Z,5.40
2023-02-11T14:34:52.679Z,4.97
2023-02-11T14:37:27.956Z,5.60
2023-02-11T14:40:06.132Z,6.33
2023-02-11T14:42:33.802Z,4.97
2023-02-11T14:45:05.820Z,5.73
2023-02-11T14:47:37.976Z,5.00
2023-02-11T14:50:11.496Z,4.53
2023-02-11T14:52:39.480Z,4.70
2023-02-11T14:55:17.755Z,4.50
2023-02-11T14:57:45.838Z,4.90
2023-02-11T15:00:19.096Z,5.30
2023-02-11T15:02:46.833Z,5.17
2023-02-11T15:05:17.390Z,4.60
2023-02-11T15:07:46.905Z,4.20
2023-02-11T15:10:27.008Z,4.10
2023-02-11T15:12:54.704Z,4.70
2023-02-11T15:15:22.542Z,4.80
2023-02-11T15:17:50.237Z,4.13
2023-02-11T15:20:23.458Z,4.10
2023-02-11T15:22:55.734Z,5.40
2023-02-11T15:25:23.931Z,5.10
2023-02-11T15:27:53.901Z,4.20
2023-02-11T15:30:27.187Z,5.00
2023-02-11T15:32:58.656Z,5.97
2023-02-11T15:35:28.752Z,5.03
2023-02-11T15:37:57.425Z,5.90
2023-02-11T15:40:27.733Z,5.60
2023-02-11T15:42:59.885Z,6.00
2023-02-11T15:45:30.432Z,7.07
2023-02-11T15:48:01.275Z,7.87
2023-02-11T15:50:32.287Z,6.00
2023-02-11T15:53:02.097Z,7.70
2023-02-11T15:55:30.122Z,7.63
2023-02-11T15:57:58.991Z,7.23
2023-02-11T16:00:32.509Z,7.10
2023-02-11T16:03:00.252Z,7.30
2023-02-11T16:05:32.105Z,6.27
2023-02-11T16:08:00.303Z,6.30
2023-02-11T16:10:30.294Z,6.10
2023-02-11T16:13:16.803Z,8.23
2023-02-11T16:15:49.735Z,6.20
2023-02-11T16:18:52.033Z,6.00
2023-02-11T16:21:33.941Z,5.00
2023-02-11T16:24:01.910Z,5.50
2023-02-11T16:26:33.123Z,5.90
2023-02-11T16:29:08.803Z,6.17
2023-02-11T16:31:38.280Z,6.37
2023-02-11T16:34:12.459Z,6.00
2023-02-11T16:36:41.345Z,6.93
2023-02-11T16:39:08.968Z,7.63
2023-02-11T16:41:36.663Z,7.30
2023-02-11T16:44:04.229Z,7.27
2023-02-11T16:46:32.384Z,8.60
2023-02-11T16:49:08.182Z,7.97
2023-02-11T16:51:36.390Z,7.23
2023-02-11T16:54:05.904Z,9.40
2023-02-11T16:56:33.494Z,7.40
2023-02-11T16:59:01.297Z,9.17
2023-02-11T17:01:29.046Z,8.80
2023-02-11T17:03:56.728Z,8.50
2023-02-11T17:06:24.435Z,12.23
2023-02-11T17:08:51.891Z,12.63
2023-02-11T17:11:20.845Z,10.40
2023-02-11T17:13:48.514Z,9.50
2023-02-11T17:16:20.954Z,9.37
2023-02-11T17:18:49.211Z,10.17
2023-02-11T17:21:17.340Z,10.83
2023-02-11T17:23:45.962Z,10.83
2023-02-11T17:26:13.500Z,11.47
2023-02-11T17:28:42.382Z,9.97
2023-02-11T17:31:10.608Z,12.03
2023-02-11T17:33:38.831Z,12.67
2023-02-11T17:36:07.580Z,10.77
2023-02-11T17:38:35.625Z,11.63
2023-02-11T17:41:04.834Z,11.37
2023-02-11T17:43:32.698Z,10.17
2023-02-11T17:46:01.735Z,11.80
2023-02-11T17:48:29.275Z,12.40
2023-02-11T17:50:57.067Z,12.50
2023-02-11T17:53:24.576Z,15.90
2023-02-11T17:55:52.375Z,14.40
2023-02-11T17:58:20.139Z,13.50
2023-02-11T18:00:47.761Z,14.13
2023-02-11T18:03:16.719Z,13.50
2023-02-11T18:05:44.309Z,13.70
2023-02-11T18:08:11.937Z,15.70
2023-02-11T18:10:42.066Z,14.90
2023-02-11T18:13:09.636Z,15.00
2023-02-11T18:15:37.126Z,15.13
2023-02-11T18:18:04.872Z,16.27
2023-02-11T18:20:34.177Z,14.70
2023-02-11T18:23:01.653Z,16.83
2023-02-11T18:25:29.858Z,16.43
2023-02-11T18:27:57.449Z,17.13
2023-02-11T18:30:25.722Z,15.70
2023-02-11T18:32:55.147Z,17.57
2023-02-11T18:35:23.586Z,18.03
2023-02-11T18:37:52.647Z,17.10
2023-02-11T18:40:20.468Z,17.00
2023-02-11T18:42:47.955Z,17.70
2023-02-11T18:45:15.891Z,18.03
2023-02-11T18:47:43.396Z,17.67
2023-02-11T18:50:13.702Z,16.17
2023-02-11T18:52:41.232Z,17.40
2023-02-11T18:55:10.504Z,17.33
2023-02-11T18:57:37.989Z,15.13
2023-02-11T19:00:06.497Z,15.30
2023-02-11T19:02:34.025Z,15.87
2023-02-11T19:05:01.711Z,13.87
2023-02-11T19:07:29.234Z,13.43
2023-02-11T19:09:56.845Z,13.40
2023-02-11T19:12:25.803Z,14.10
2023-02-11T19:14:53.549Z,13.10
2023-02-11T19:17:21.008Z,11.90
2023-02-11T19:19:48.846Z,12.23
2023-02-11T19:22:16.981Z,12.53
2023-02-11T19:24:44.531Z,12.10
2023-02-11T19:27:12.422Z,12.57
2023-02-11T19:29:41.419Z,12.40
2023-02-11T19:32:09.154Z,12.27
2023-02-11T19:34:41.490Z,13.43
2023-02-11T19:37:10.791Z,12.20
2023-02-11T19:39:39.410Z,14.13
2023-02-11T19:42:07.084Z,12.90
2023-02-11T19:44:34.721Z,57.40
2023-02-11T19:47:03.781Z,12.30
2023-02-11T19:49:31.326Z,13.63
2023-02-11T19:51:58.955Z,15.53
2023-02-11T19:54:27.329Z,13.63
2023-02-11T19:56:54.996Z,11.30
2023-02-11T19:59:22.570Z,10.10
2023-02-11T20:01:50.210Z,14.83
2023-02-11T20:04:19.893Z,13.50
2023-02-11T20:06:49.576Z,11.43
2023-02-11T20:09:17.504Z,14.13
2023-02-11T20:11:45.452Z,15.00
2023-02-11T20:14:14.708Z,14.53
2023-02-11T20:16:49.117Z,15.07
2023-02-11T20:19:19.974Z,15.20
2023-02-11T20:21:48.786Z,13.93
2023-02-11T20:24:16.595Z,17.33
2023-02-11T20:26:45.248Z,15.50
2023-02-11T20:29:12.815Z,15.40
2023-02-11T20:31:40.502Z,15.83
2023-02-11T20:34:08.392Z,15.47
2023-02-11T20:36:38.626Z,15.37
2023-02-11T20:39:06.961Z,15.17
2023-02-11T20:41:39.731Z,15.70
2023-02-11T20:44:09.088Z,14.07
2023-02-11T20:46:39.874Z,13.97
2023-02-11T20:49:08.632Z,15.23
2023-02-11T20:51:37.742Z,14.27
2023-02-11T20:54:06.312Z,13.40
2023-02-11T20:56:36.546Z,16.33
2023-02-11T20:59:05.188Z,15.33
2023-02-11T21:01:35.138Z,14.00
2023-02-11T21:04:05.048Z,14.77
2023-02-11T21:06:34.684Z,14.30
2023-02-11T21:09:04.752Z,15.70
2023-02-11T21:11:32.652Z,17.27
2023-02-11T21:14:00.852Z,17.30
2023-02-11T21:16:28.626Z,16.27
2023-02-11T21:18:57.065Z,14.70
2023-02-11T21:21:25.158Z,17.83
2023-02-11T21:23:53.383Z,19.07
2023-02-11T21:26:22.525Z,17.90
2023-02-11T21:28:51.878Z,17.83
2023-02-11T21:31:21.606Z,17.37
2023-02-11T21:33:49.620Z,18.13
2023-02-11T21:36:17.302Z,16.70
2023-02-11T21:38:44.871Z,18.60
2023-02-11T21:41:12.454Z,17.17
2023-02-11T21:43:41.416Z,20.97
2023-02-11T21:46:10.129Z,19.77
2023-02-11T21:48:38.084Z,18.20
2023-02-11T21:51:06.607Z,18.20
2023-02-11T21:53:34.344Z,18.83
2023-02-11T21:56:10.454Z,20.10
2023-02-11T21:58:38.348Z,18.27
2023-02-11T22:01:13.578Z,19.50
2023-02-11T22:03:41.395Z,20.23
2023-02-11T22:06:10.439Z,19.40
2023-02-11T22:08:38.223Z,18.90
2023-02-11T22:11:06.717Z,17.73
2023-02-11T22:13:35.072Z,17.00
2023-02-11T22:16:04.148Z,16.30
2023-02-11T22:18:33.468Z,16.40
2023-02-11T22:21:02.382Z,13.97
2023-02-11T22:23:30.501Z,14.13
2023-02-11T22:25:59.341Z,16.83
2023-02-11T22:28:27.006Z,15.77
2023-02-11T22:30:55.608Z,14.30
2023-02-11T22:33:23.556Z,14.50
2023-02-11T22:35:59.015Z,15.33
2023-02-11T22:38:26.730Z,15.27
2023-02-11T22:40:54.445Z,14.93
2023-02-11T22:43:22.346Z,15.77
2023-02-11T22:45:49.958Z,13.30
2023-02-11T22:48:20.752Z,13.30
2023-02-11T22:50:49.810Z,12.50
2023-02-11T22:53:18.683Z,13.80
2023-02-11T22:55:46.228Z,12.80
2023-02-11T22:58:13.963Z,13.60
2023-02-11T23:00:42.521Z,13.50
2023-02-11T23:03:11.184Z,13.30
2023-02-11T23:05:39.844Z,14.50
2023-02-11T23:08:08.016Z,12.07
2023-02-11T23:10:37.211Z,14.00
2023-02-11T23:13:05.604Z,14.03
2023-02-11T23:15:34.562Z,13.30
2023-02-11T23:18:02.148Z,13.07
2023-02-11T23:20:29.647Z,13.70
2023-02-11T23:22:57.138Z,13.63
2023-02-11T23:25:24.762Z,13.83
2023-02-11T23:27:53.781Z,13.50
2023-02-11T23:30:21.824Z,15.90
2023-02-11T23:32:49.373Z,12.73
2023-02-11T23:35:22.050Z,13.17
2023-02-11T23:37:50.241Z,11.67
2023-02-11T23:40:18.083Z,12.20
2023-02-11T23:42:45.612Z,11.33
2023-02-11T23:45:15.250Z,12.10
2023-02-11T23:47:42.959Z,10.93
2023-02-11T23:50:11.575Z,10.03
2023-02-11T23:52:39.155Z,10.90
2023-02-11T23:55:07.356Z,10.33
2023-02-11T23:57:35.460Z,10.50
